sensor_id;sensor_type;location;lat;lon;timestamp;P1;durP1;ratioP1;P2;durP2;ratioP2
59054;SDS011;44845;51.444;7.460;2023-09-07T00:00:33;4.80;;;2.60;;
59054;SDS011;44845;51.444;7.460;2023-09-07T00:02:59;5.45;;;3.38;;
59054;SDS011;44845;51.444;7.460;2023-09-07T00:05:24;9.45;;;3.47;;
59054;SDS011;44845;51.444;7.460;2023-09-07T00:07:50;7.45;;;3.67;;
59054;SDS011;44845;51.444;7.460;2023-09-07T00:10:15;5.25;;;2.90;;
59054;SDS011;44845;51.444;7.460;2023-09-07T00:12:42;5.20;;;2.88;;
59054;SDS011;44845;51.444;7.460;2023-09-07T00:15:08;5.00;;;2.83;;
59054;SDS011;44845;51.444;7.460;2023-09-07T00:17:35;4.65;;;2.65;;
59054;SDS011;44845;51.444;7.460;2023-09-07T00:20:01;4.78;;;2.55;;
59054;SDS011;44845;51.444;7.460;2023-09-07T00:22:37;5.47;;;2.70;;
59054;SDS011;44845;51.444;7.460;2023-09-07T00:25:03;8.20;;;2.72;;
59054;SDS011;44845;51.444;7.460;2023-09-07T00:27:29;6.93;;;2.90;;
59054;SDS011;44845;51.444;7.460;2023-09-07T00:29:55;3.42;;;2.53;;
59054;SDS011;44845;51.444;7.460;2023-09-07T00:32:20;4.63;;;2.47;;
59054;SDS011;44845;51.444;7.460;2023-09-07T00:34:45;6.45;;;3.00;;
59054;SDS011;44845;51.444;7.460;2023-09-07T00:37:11;5.07;;;2.60;;
59054;SDS011;44845;51.444;7.460;2023-09-07T00:39:37;5.57;;;2.92;;
59054;SDS011;44845;51.444;7.460;2023-09-07T00:42:02;3.63;;;2.33;;
59054;SDS011;44845;51.444;7.460;2023-09-07T00:44:28;4.88;;;2.35;;
59054;SDS011;44845;51.444;7.460;2023-09-07T00:46:53;3.00;;;2.67;;
59054;SDS011;44845;51.444;7.460;2023-09-07T00:49:19;3.63;;;2.72;;
59054;SDS011;44845;51.444;7.460;2023-09-07T00:51:44;4.90;;;2.45;;
59054;SDS011;44845;51.444;7.460;2023-09-07T00:54:10;3.35;;;2.58;;
59054;SDS011;44845;51.444;7.460;2023-09-07T00:56:36;3.42;;;2.45;;
59054;SDS011;44845;51.444;7.460;2023-09-07T00:59:01;6.40;;;2.40;;
59054;SDS011;44845;51.444;7.460;2023-09-07T01:01:27;5.70;;;2.50;;
59054;SDS011;44845;51.444;7.460;2023-09-07T01:03:54;3.22;;;2.75;;
59054;SDS011;44845;51.444;7.460;2023-09-07T01:09:18;6.55;;;2.50;;
59054;SDS011;44845;51.444;7.460;2023-09-07T01:11:47;2.65;;;2.45;;
59054;SDS011;44845;51.444;7.460;2023-09-07T01:14:12;3.08;;;2.33;;
59054;SDS011;44845;51.444;7.460;2023-09-07T01:16:38;4.88;;;2.30;;
59054;SDS011;44845;51.444;7.460;2023-09-07T01:19:05;7.40;;;2.40;;
59054;SDS011;44845;51.444;7.460;2023-09-07T01:21:35;5.18;;;2.35;;
59054;SDS011;44845;51.444;7.460;2023-09-07T01:24:02;7.93;;;2.67;;
59054;SDS011;44845;51.444;7.460;2023-09-07T01:26:29;3.70;;;2.70;;
59054;SDS011;44845;51.444;7.460;2023-09-07T01:28:55;7.45;;;2.72;;
59054;SDS011;44845;51.444;7.460;2023-09-07T01:31:21;3.22;;;2.50;;
59054;SDS011;44845;51.444;7.460;2023-09-07T01:33:46;6.85;;;2.78;;
59054;SDS011;44845;51.444;7.460;2023-09-07T01:36:12;4.30;;;2.92;;
59054;SDS011;44845;51.444;7.460;2023-09-07T01:38:37;3.72;;;2.50;;
59054;SDS011;44845;51.444;7.460;2023-09-07T01:41:03;4.85;;;2.13;;
59054;SDS011;44845;51.444;7.460;2023-09-07T01:43:28;2.95;;;2.60;;
59054;SDS011;44845;51.444;7.460;2023-09-07T01:45:53;3.75;;;2.75;;
59054;SDS011;44845;51.444;7.460;2023-09-07T01:48:19;3.83;;;2.88;;
59054;SDS011;44845;51.444;7.460;2023-09-07T01:50:44;5.45;;;2.90;;
59054;SDS011;44845;51.444;7.460;2023-09-07T01:53:09;8.82;;;2.47;;
59054;SDS011;44845;51.444;7.460;2023-09-07T01:55:35;3.10;;;2.80;;
59054;SDS011;44845;51.444;7.460;2023-09-07T01:58:00;3.13;;;2.35;;
59054;SDS011;44845;51.444;7.460;2023-09-07T02:03:44;7.32;;;2.60;;
59054;SDS011;44845;51.444;7.460;2023-09-07T02:06:10;5.13;;;2.35;;
59054;SDS011;44845;51.444;7.460;2023-09-07T02:08:35;5.22;;;2.70;;
59054;SDS011;44845;51.444;7.460;2023-09-07T02:11:00;3.88;;;2.60;;
59054;SDS011;44845;51.444;7.460;2023-09-07T02:13:26;3.15;;;2.58;;
59054;SDS011;44845;51.444;7.460;2023-09-07T02:15:51;5.32;;;3.05;;
59054;SDS011;44845;51.444;7.460;2023-09-07T02:18:16;7.97;;;2.50;;
59054;SDS011;44845;51.444;7.460;2023-09-07T02:20:42;5.78;;;2.88;;
59054;SDS011;44845;51.444;7.460;2023-09-07T02:23:07;3.05;;;2.65;;
59054;SDS011;44845;51.444;7.460;2023-09-07T02:25:32;4.90;;;2.67;;
59054;SDS011;44845;51.444;7.460;2023-09-07T02:27:59;3.38;;;2.60;;
59054;SDS011;44845;51.444;7.460;2023-09-07T02:30:25;3.17;;;2.88;;
59054;SDS011;44845;51.444;7.460;2023-09-07T02:32:50;5.15;;;2.78;;
59054;SDS011;44845;51.444;7.460;2023-09-07T02:35:15;5.53;;;2.80;;
59054;SDS011;44845;51.444;7.460;2023-09-07T02:37:41;5.82;;;3.08;;
59054;SDS011;44845;51.444;7.460;2023-09-07T02:40:06;4.22;;;3.17;;
59054;SDS011;44845;51.444;7.460;2023-09-07T02:42:35;3.25;;;2.90;;
59054;SDS011;44845;51.444;7.460;2023-09-07T02:45:00;4.47;;;2.83;;
59054;SDS011;44845;51.444;7.460;2023-09-07T02:47:25;5.78;;;3.13;;
59054;SDS011;44845;51.444;7.460;2023-09-07T02:49:51;5.75;;;3.00;;
59054;SDS011;44845;51.444;7.460;2023-09-07T02:52:16;4.07;;;2.80;;
59054;SDS011;44845;51.444;7.460;2023-09-07T02:54:41;6.43;;;2.97;;
59054;SDS011;44845;51.444;7.460;2023-09-07T02:57:07;5.47;;;2.70;;
59054;SDS011;44845;51.444;7.460;2023-09-07T02:59:32;4.25;;;3.00;;
59054;SDS011;44845;51.444;7.460;2023-09-07T03:01:57;3.80;;;2.50;;
59054;SDS011;44845;51.444;7.460;2023-09-07T03:04:23;4.28;;;2.50;;
59054;SDS011;44845;51.444;7.460;2023-09-07T03:06:48;4.13;;;2.90;;
59054;SDS011;44845;51.444;7.460;2023-09-07T03:09:13;4.93;;;3.17;;
59054;SDS011;44845;51.444;7.460;2023-09-07T03:11:39;4.45;;;3.55;;
59054;SDS011;44845;51.444;7.460;2023-09-07T03:14:04;8.82;;;3.20;;
59054;SDS011;44845;51.444;7.460;2023-09-07T03:16:30;6.20;;;3.72;;
59054;SDS011;44845;51.444;7.460;2023-09-07T03:18:56;4.90;;;3.30;;
59054;SDS011;44845;51.444;7.460;2023-09-07T03:21:21;7.53;;;3.40;;
59054;SDS011;44845;51.444;7.460;2023-09-07T03:23:50;4.88;;;3.15;;
59054;SDS011;44845;51.444;7.460;2023-09-07T03:26:16;5.43;;;3.13;;
59054;SDS011;44845;51.444;7.460;2023-09-07T03:28:42;5.70;;;3.17;;
59054;SDS011;44845;51.444;7.460;2023-09-07T03:31:07;4.72;;;3.40;;
59054;SDS011;44845;51.444;7.460;2023-09-07T03:33:32;3.42;;;3.10;;
59054;SDS011;44845;51.444;7.460;2023-09-07T03:35:58;5.65;;;3.20;;
59054;SDS011;44845;51.444;7.460;2023-09-07T03:38:24;5.80;;;3.53;;
59054;SDS011;44845;51.444;7.460;2023-09-07T03:40:49;7.00;;;3.30;;
59054;SDS011;44845;51.444;7.460;2023-09-07T03:43:15;5.43;;;3.13;;
59054;SDS011;44845;51.444;7.460;2023-09-07T03:45:40;5.35;;;3.30;;
59054;SDS011;44845;51.444;7.460;2023-09-07T03:48:05;4.60;;;3.17;;
59054;SDS011;44845;51.444;7.460;2023-09-07T03:50:31;5.50;;;3.33;;
59054;SDS011;44845;51.444;7.460;2023-09-07T03:52:56;6.25;;;3.13;;
59054;SDS011;44845;51.444;7.460;2023-09-07T03:55:22;4.88;;;3.35;;
59054;SDS011;44845;51.444;7.460;2023-09-07T03:57:47;5.90;;;2.83;;
59054;SDS011;44845;51.444;7.460;2023-09-07T04:00:12;7.22;;;3.63;;
59054;SDS011;44845;51.444;7.460;2023-09-07T04:02:39;5.20;;;2.95;;
59054;SDS011;44845;51.444;7.460;2023-09-07T04:05:04;5.72;;;3.25;;
59054;SDS011;44845;51.444;7.460;2023-09-07T04:07:30;6.07;;;3.20;;
59054;SDS011;44845;51.444;7.460;2023-09-07T04:09:57;7.68;;;3.70;;
59054;SDS011;44845;51.444;7.460;2023-09-07T04:12:23;5.53;;;3.58;;
59054;SDS011;44845;51.444;7.460;2023-09-07T04:14:48;3.65;;;3.08;;
59054;SDS011;44845;51.444;7.460;2023-09-07T04:17:14;5.35;;;3.63;;
59054;SDS011;44845;51.444;7.460;2023-09-07T04:19:39;5.75;;;4.00;;
59054;SDS011;44845;51.444;7.460;2023-09-07T04:22:05;6.45;;;3.00;;
59054;SDS011;44845;51.444;7.460;2023-09-07T04:24:30;8.32;;;3.58;;
59054;SDS011;44845;51.444;7.460;2023-09-07T04:26:58;5.28;;;3.25;;
59054;SDS011;44845;51.444;7.460;2023-09-07T04:29:25;5.35;;;3.55;;
59054;SDS011;44845;51.444;7.460;2023-09-07T04:31:51;6.82;;;3.40;;
59054;SDS011;44845;51.444;7.460;2023-09-07T04:34:17;5.47;;;3.70;;
59054;SDS011;44845;51.444;7.460;2023-09-07T04:36:42;5.63;;;3.60;;
59054;SDS011;44845;51.444;7.460;2023-09-07T04:39:07;8.50;;;3.63;;
59054;SDS011;44845;51.444;7.460;2023-09-07T04:41:33;4.53;;;3.35;;
59054;SDS011;44845;51.444;7.460;2023-09-07T04:43:58;5.03;;;3.72;;
59054;SDS011;44845;51.444;7.460;2023-09-07T04:46:24;7.78;;;3.67;;
59054;SDS011;44845;51.444;7.460;2023-09-07T04:48:49;6.65;;;4.30;;
59054;SDS011;44845;51.444;7.460;2023-09-07T04:51:14;5.30;;;3.90;;
59054;SDS011;44845;51.444;7.460;2023-09-07T04:53:40;8.60;;;3.85;;
59054;SDS011;44845;51.444;7.460;2023-09-07T04:56:06;4.93;;;3.60;;
59054;SDS011;44845;51.444;7.460;2023-09-07T04:58:33;9.02;;;4.28;;
59054;SDS011;44845;51.444;7.460;2023-09-07T05:01:05;5.00;;;3.78;;
59054;SDS011;44845;51.444;7.460;2023-09-07T05:03:33;6.50;;;4.05;;
59054;SDS011;44845;51.444;7.460;2023-09-07T05:05:59;7.93;;;3.85;;
59054;SDS011;44845;51.444;7.460;2023-09-07T05:08:25;5.30;;;3.50;;
59054;SDS011;44845;51.444;7.460;2023-09-07T05:11:24;8.90;;;3.58;;
59054;SDS011;44845;51.444;7.460;2023-09-07T05:13:42;7.80;;;4.55;;
59054;SDS011;44845;51.444;7.460;2023-09-07T05:16:07;6.72;;;4.55;;
59054;SDS011;44845;51.444;7.460;2023-09-07T05:18:33;7.47;;;4.28;;
59054;SDS011;44845;51.444;7.460;2023-09-07T05:20:58;6.18;;;4.35;;
59054;SDS011;44845;51.444;7.460;2023-09-07T05:23:24;6.82;;;4.13;;
59054;SDS011;44845;51.444;7.460;2023-09-07T05:25:51;4.00;;;3.28;;
59054;SDS011;44845;51.444;7.460;2023-09-07T05:28:18;8.25;;;3.92;;
59054;SDS011;44845;51.444;7.460;2023-09-07T05:30:44;9.10;;;3.90;;
59054;SDS011;44845;51.444;7.460;2023-09-07T05:33:10;7.57;;;3.60;;
59054;SDS011;44845;51.444;7.460;2023-09-07T05:35:36;6.60;;;3.70;;
59054;SDS011;44845;51.444;7.460;2023-09-07T05:38:02;7.65;;;4.05;;
59054;SDS011;44845;51.444;7.460;2023-09-07T05:40:28;9.80;;;3.90;;
59054;SDS011;44845;51.444;7.460;2023-09-07T05:42:53;6.90;;;3.78;;
59054;SDS011;44845;51.444;7.460;2023-09-07T05:45:19;9.20;;;3.70;;
59054;SDS011;44845;51.444;7.460;2023-09-07T05:47:45;8.27;;;3.88;;
59054;SDS011;44845;51.444;7.460;2023-09-07T05:50:10;6.28;;;3.72;;
59054;SDS011;44845;51.444;7.460;2023-09-07T05:52:36;8.27;;;4.18;;
59054;SDS011;44845;51.444;7.460;2023-09-07T05:55:01;5.55;;;3.92;;
59054;SDS011;44845;51.444;7.460;2023-09-07T05:57:27;9.40;;;4.13;;
59054;SDS011;44845;51.444;7.460;2023-09-07T05:59:52;10.02;;;4.28;;
59054;SDS011;44845;51.444;7.460;2023-09-07T06:02:18;6.20;;;3.85;;
59054;SDS011;44845;51.444;7.460;2023-09-07T06:04:43;6.85;;;3.72;;
59054;SDS011;44845;51.444;7.460;2023-09-07T06:07:08;6.05;;;3.63;;
59054;SDS011;44845;51.444;7.460;2023-09-07T06:09:34;9.45;;;3.95;;
59054;SDS011;44845;51.444;7.460;2023-09-07T06:12:00;5.32;;;3.80;;
59054;SDS011;44845;51.444;7.460;2023-09-07T06:14:27;5.80;;;3.70;;
59054;SDS011;44845;51.444;7.460;2023-09-07T06:16:53;8.52;;;3.70;;
59054;SDS011;44845;51.444;7.460;2023-09-07T06:19:18;6.85;;;4.00;;
59054;SDS011;44845;51.444;7.460;2023-09-07T06:21:44;6.47;;;4.03;;
59054;SDS011;44845;51.444;7.460;2023-09-07T06:24:10;6.75;;;3.95;;
59054;SDS011;44845;51.444;7.460;2023-09-07T06:26:35;8.32;;;3.72;;
59054;SDS011;44845;51.444;7.460;2023-09-07T06:29:00;6.85;;;4.05;;
59054;SDS011;44845;51.444;7.460;2023-09-07T06:31:26;6.65;;;3.72;;
59054;SDS011;44845;51.444;7.460;2023-09-07T06:33:51;6.78;;;4.00;;
59054;SDS011;44845;51.444;7.460;2023-09-07T06:36:16;7.22;;;3.60;;
59054;SDS011;44845;51.444;7.460;2023-09-07T06:38:42;8.43;;;3.60;;
59054;SDS011;44845;51.444;7.460;2023-09-07T06:41:07;7.43;;;3.80;;
59054;SDS011;44845;51.444;7.460;2023-09-07T06:43:34;7.63;;;3.70;;
59054;SDS011;44845;51.444;7.460;2023-09-07T06:46:05;9.40;;;4.10;;
59054;SDS011;44845;51.444;7.460;2023-09-07T06:48:32;9.30;;;4.18;;
59054;SDS011;44845;51.444;7.460;2023-09-07T06:51:04;7.40;;;3.90;;
59054;SDS011;44845;51.444;7.460;2023-09-07T06:53:31;7.88;;;4.10;;
59054;SDS011;44845;51.444;7.460;2023-09-07T06:56:00;6.00;;;3.97;;
59054;SDS011;44845;51.444;7.460;2023-09-07T06:58:26;11.05;;;4.47;;
59054;SDS011;44845;51.444;7.460;2023-09-07T07:00:52;8.68;;;4.53;;
59054;SDS011;44845;51.444;7.460;2023-09-07T07:03:18;14.15;;;4.22;;
59054;SDS011;44845;51.444;7.460;2023-09-07T07:05:43;7.78;;;4.13;;
59054;SDS011;44845;51.444;7.460;2023-09-07T07:08:09;8.45;;;4.32;;
59054;SDS011;44845;51.444;7.460;2023-09-07T07:10:34;7.63;;;4.35;;
59054;SDS011;44845;51.444;7.460;2023-09-07T07:13:00;10.20;;;4.47;;
59054;SDS011;44845;51.444;7.460;2023-09-07T07:15:25;10.02;;;4.43;;
59054;SDS011;44845;51.444;7.460;2023-09-07T07:17:50;6.78;;;3.97;;
59054;SDS011;44845;51.444;7.460;2023-09-07T07:20:16;13.18;;;5.78;;
59054;SDS011;44845;51.444;7.460;2023-09-07T07:22:41;9.82;;;5.03;;
59054;SDS011;44845;51.444;7.460;2023-09-07T07:25:07;13.02;;;5.85;;
59054;SDS011;44845;51.444;7.460;2023-09-07T07:27:32;8.38;;;4.95;;
59054;SDS011;44845;51.444;7.460;2023-09-07T07:29:58;10.30;;;4.97;;
59054;SDS011;44845;51.444;7.460;2023-09-07T07:32:24;9.32;;;5.25;;
59054;SDS011;44845;51.444;7.460;2023-09-07T07:34:49;8.43;;;4.65;;
59054;SDS011;44845;51.444;7.460;2023-09-07T07:37:15;10.45;;;5.15;;
59054;SDS011;44845;51.444;7.460;2023-09-07T07:39:40;10.00;;;5.30;;
59054;SDS011;44845;51.444;7.460;2023-09-07T07:42:06;12.48;;;5.25;;
59054;SDS011;44845;51.444;7.460;2023-09-07T07:44:31;14.13;;;5.20;;
59054;SDS011;44845;51.444;7.460;2023-09-07T08:14:16;10.25;;;3.95;;
59054;SDS011;44845;51.444;7.460;2023-09-07T08:16:42;8.23;;;4.30;;
59054;SDS011;44845;51.444;7.460;2023-09-07T08:19:07;9.57;;;4.22;;
59054;SDS011;44845;51.444;7.460;2023-09-07T08:21:33;9.57;;;4.13;;
59054;SDS011;44845;51.444;7.460;2023-09-07T08:23:58;8.73;;;3.50;;
59054;SDS011;44845;51.444;7.460;2023-09-07T08:26:25;8.68;;;3.33;;
59054;SDS011;44845;51.444;7.460;2023-09-07T08:28:50;6.38;;;3.33;;
59054;SDS011;44845;51.444;7.460;2023-09-07T08:31:15;3.58;;;3.03;;
59054;SDS011;44845;51.444;7.460;2023-09-07T08:33:47;7.68;;;3.50;;
59054;SDS011;44845;51.444;7.460;2023-09-07T08:36:15;3.90;;;2.92;;
59054;SDS011;44845;51.444;7.460;2023-09-07T08:38:42;6.35;;;3.47;;
59054;SDS011;44845;51.444;7.460;2023-09-07T08:41:07;4.80;;;2.75;;
59054;SDS011;44845;51.444;7.460;2023-09-07T08:43:33;7.70;;;3.15;;
59054;SDS011;44845;51.444;7.460;2023-09-07T08:46:15;3.40;;;2.97;;
59054;SDS011;44845;51.444;7.460;2023-09-07T08:48:45;4.40;;;2.92;;
59054;SDS011;44845;51.444;7.460;2023-09-07T08:51:11;5.65;;;2.85;;
59054;SDS011;44845;51.444;7.460;2023-09-07T08:53:40;3.90;;;2.80;;
59054;SDS011;44845;51.444;7.460;2023-09-07T08:56:06;3.03;;;2.70;;
59054;SDS011;44845;51.444;7.460;2023-09-07T08:58:34;3.65;;;2.70;;
59054;SDS011;44845;51.444;7.460;2023-09-07T09:01:00;5.80;;;3.20;;
59054;SDS011;44845;51.444;7.460;2023-09-07T09:03:26;4.63;;;2.60;;
59054;SDS011;44845;51.444;7.460;2023-09-07T09:05:55;3.65;;;2.78;;
59054;SDS011;44845;51.444;7.460;2023-09-07T09:08:21;6.07;;;3.10;;
59054;SDS011;44845;51.444;7.460;2023-09-07T09:10:49;4.65;;;2.95;;
59054;SDS011;44845;51.444;7.460;2023-09-07T09:13:32;6.35;;;3.03;;
59054;SDS011;44845;51.444;7.460;2023-09-07T09:16:00;4.75;;;2.75;;
59054;SDS011;44845;51.444;7.460;2023-09-07T09:18:26;5.10;;;3.50;;
59054;SDS011;44845;51.444;7.460;2023-09-07T09:20:52;4.72;;;2.60;;
59054;SDS011;44845;51.444;7.460;2023-09-07T09:23:19;3.55;;;3.20;;
59054;SDS011;44845;51.444;7.460;2023-09-07T09:25:45;3.30;;;3.00;;
59054;SDS011;44845;51.444;7.460;2023-09-07T09:28:10;4.95;;;3.22;;
59054;SDS011;44845;51.444;7.460;2023-09-07T09:30:36;6.07;;;3.45;;
59054;SDS011;44845;51.444;7.460;2023-09-07T09:33:02;5.07;;;2.60;;
59054;SDS011;44845;51.444;7.460;2023-09-07T09:35:30;6.90;;;3.10;;
59054;SDS011;44845;51.444;7.460;2023-09-07T09:37:56;4.75;;;2.80;;
59054;SDS011;44845;51.444;7.460;2023-09-07T09:40:29;8.43;;;3.20;;
59054;SDS011;44845;51.444;7.460;2023-09-07T09:43:01;5.07;;;2.97;;
59054;SDS011;44845;51.444;7.460;2023-09-07T09:45:28;4.13;;;3.03;;
59054;SDS011;44845;51.444;7.460;2023-09-07T09:47:54;5.57;;;2.95;;
59054;SDS011;44845;51.444;7.460;2023-09-07T09:50:21;3.63;;;2.85;;
59054;SDS011;44845;51.444;7.460;2023-09-07T09:52:47;4.70;;;2.58;;
59054;SDS011;44845;51.444;7.460;2023-09-07T09:55:13;3.30;;;2.85;;
59054;SDS011;44845;51.444;7.460;2023-09-07T09:57:40;3.63;;;3.28;;
59054;SDS011;44845;51.444;7.460;2023-09-07T10:00:06;4.75;;;2.88;;
59054;SDS011;44845;51.444;7.460;2023-09-07T10:02:59;4.65;;;2.80;;
59054;SDS011;44845;51.444;7.460;2023-09-07T10:05:27;3.10;;;2.80;;
59054;SDS011;44845;51.444;7.460;2023-09-07T10:07:59;5.68;;;2.97;;
59054;SDS011;44845;51.444;7.460;2023-09-07T10:10:31;3.30;;;3.00;;
59054;SDS011;44845;51.444;7.460;2023-09-07T10:12:59;6.75;;;3.28;;
59054;SDS011;44845;51.444;7.460;2023-09-07T10:15:26;3.65;;;3.00;;
59054;SDS011;44845;51.444;7.460;2023-09-07T10:26:13;7.97;;;3.50;;
59054;SDS011;44845;51.444;7.460;2023-09-07T10:28:40;4.13;;;3.15;;
59054;SDS011;44845;51.444;7.460;2023-09-07T10:31:13;6.32;;;3.20;;
59054;SDS011;44845;51.444;7.460;2023-09-07T10:33:40;6.10;;;3.10;;
59054;SDS011;44845;51.444;7.460;2023-09-07T10:36:05;6.35;;;3.17;;
59054;SDS011;44845;51.444;7.460;2023-09-07T10:38:32;5.03;;;2.97;;
59054;SDS011;44845;51.444;7.460;2023-09-07T10:40:59;7.70;;;3.20;;
59054;SDS011;44845;51.444;7.460;2023-09-07T10:43:30;3.13;;;2.90;;
59054;SDS011;44845;51.444;7.460;2023-09-07T10:45:57;10.35;;;3.50;;
59054;SDS011;44845;51.444;7.460;2023-09-07T10:48:24;3.22;;;2.70;;
59054;SDS011;44845;51.444;7.460;2023-09-07T10:50:50;3.63;;;2.88;;
59054;SDS011;44845;51.444;7.460;2023-09-07T10:53:24;6.75;;;2.72;;
59054;SDS011;44845;51.444;7.460;2023-09-07T10:55:52;4.07;;;3.33;;
59054;SDS011;44845;51.444;7.460;2023-09-07T11:01:16;5.25;;;3.30;;
59054;SDS011;44845;51.444;7.460;2023-09-07T11:03:41;5.22;;;3.15;;
59054;SDS011;44845;51.444;7.460;2023-09-07T11:08:35;5.32;;;3.42;;
59054;SDS011;44845;51.444;7.460;2023-09-07T11:11:03;5.05;;;3.08;;
59054;SDS011;44845;51.444;7.460;2023-09-07T11:13:29;6.55;;;3.38;;
59054;SDS011;44845;51.444;7.460;2023-09-07T11:15:56;6.88;;;3.78;;
59054;SDS011;44845;51.444;7.460;2023-09-07T11:18:22;4.45;;;3.40;;
59054;SDS011;44845;51.444;7.460;2023-09-07T11:20:49;7.55;;;3.50;;
59054;SDS011;44845;51.444;7.460;2023-09-07T11:23:16;7.55;;;3.20;;
59054;SDS011;44845;51.444;7.460;2023-09-07T11:25:46;5.28;;;3.67;;
59054;SDS011;44845;51.444;7.460;2023-09-07T11:28:12;5.53;;;3.65;;
59054;SDS011;44845;51.444;7.460;2023-09-07T11:30:48;7.30;;;3.88;;
59054;SDS011;44845;51.444;7.460;2023-09-07T11:33:15;6.82;;;3.70;;
59054;SDS011;44845;51.444;7.460;2023-09-07T11:35:41;5.70;;;3.63;;
59054;SDS011;44845;51.444;7.460;2023-09-07T11:38:06;5.57;;;3.28;;
59054;SDS011;44845;51.444;7.460;2023-09-07T11:40:35;8.93;;;3.30;;
59054;SDS011;44845;51.444;7.460;2023-09-07T11:43:00;9.38;;;3.85;;
59054;SDS011;44845;51.444;7.460;2023-09-07T11:45:25;12.32;;;3.75;;
59054;SDS011;44845;51.444;7.460;2023-09-07T11:47:51;7.70;;;4.15;;
59054;SDS011;44845;51.444;7.460;2023-09-07T11:50:17;6.15;;;3.55;;
59054;SDS011;44845;51.444;7.460;2023-09-07T11:52:43;4.82;;;3.50;;
59054;SDS011;44845;51.444;7.460;2023-09-07T11:55:08;5.00;;;3.33;;
59054;SDS011;44845;51.444;7.460;2023-09-07T11:57:35;3.58;;;3.13;;
59054;SDS011;44845;51.444;7.460;2023-09-07T12:00:01;6.90;;;3.30;;
59054;SDS011;44845;51.444;7.460;2023-09-07T12:02:27;5.00;;;3.25;;
59054;SDS011;44845;51.444;7.460;2023-09-07T12:04:52;7.20;;;3.33;;
59054;SDS011;44845;51.444;7.460;2023-09-07T12:07:19;4.90;;;3.47;;
59054;SDS011;44845;51.444;7.460;2023-09-07T12:09:45;4.75;;;3.50;;
59054;SDS011;44845;51.444;7.460;2023-09-07T12:12:10;3.65;;;3.22;;
59054;SDS011;44845;51.444;7.460;2023-09-07T12:14:35;3.28;;;2.97;;
59054;SDS011;44845;51.444;7.460;2023-09-07T12:17:01;4.60;;;3.22;;
59054;SDS011;44845;51.444;7.460;2023-09-07T12:19:26;8.65;;;3.30;;
59054;SDS011;44845;51.444;7.460;2023-09-07T12:21:52;7.30;;;3.25;;
59054;SDS011;44845;51.444;7.460;2023-09-07T12:24:17;3.85;;;3.50;;
59054;SDS011;44845;51.444;7.460;2023-09-07T12:26:42;5.63;;;3.38;;
59054;SDS011;44845;51.444;7.460;2023-09-07T12:29:08;5.63;;;3.17;;
59054;SDS011;44845;51.444;7.460;2023-09-07T12:31:33;10.25;;;3.20;;
59054;SDS011;44845;51.444;7.460;2023-09-07T12:33:58;2.97;;;2.72;;
59054;SDS011;44845;51.444;7.460;2023-09-07T12:36:24;7.55;;;3.13;;
59054;SDS011;44845;51.444;7.460;2023-09-07T12:38:49;4.28;;;3.28;;
59054;SDS011;44845;51.444;7.460;2023-09-07T12:41:14;5.82;;;2.72;;
59054;SDS011;44845;51.444;7.460;2023-09-07T12:43:40;4.60;;;3.00;;
59054;SDS011;44845;51.444;7.460;2023-09-07T12:46:07;4.78;;;2.97;;
59054;SDS011;44845;51.444;7.460;2023-09-07T12:48:33;4.70;;;3.05;;
59054;SDS011;44845;51.444;7.460;2023-09-07T12:50:58;4.93;;;2.88;;
59054;SDS011;44845;51.444;7.460;2023-09-07T12:53:24;7.13;;;3.13;;
59054;SDS011;44845;51.444;7.460;2023-09-07T12:55:51;3.17;;;2.78;;
59054;SDS011;44845;51.444;7.460;2023-09-07T12:58:17;3.58;;;3.05;;
59054;SDS011;44845;51.444;7.460;2023-09-07T13:00:42;4.22;;;3.10;;
59054;SDS011;44845;51.444;7.460;2023-09-07T13:03:08;6.13;;;3.55;;
59054;SDS011;44845;51.444;7.460;2023-09-07T13:05:33;7.90;;;3.40;;
59054;SDS011;44845;51.444;7.460;2023-09-07T13:07:58;5.38;;;3.10;;
59054;SDS011;44845;51.444;7.460;2023-09-07T13:10:27;4.10;;;2.95;;
59054;SDS011;44845;51.444;7.460;2023-09-07T13:12:52;5.43;;;3.05;;
59054;SDS011;44845;51.444;7.460;2023-09-07T13:15:18;5.32;;;3.25;;
59054;SDS011;44845;51.444;7.460;2023-09-07T13:17:43;4.35;;;3.42;;
59054;SDS011;44845;51.444;7.460;2023-09-07T13:20:09;7.50;;;3.58;;
59054;SDS011;44845;51.444;7.460;2023-09-07T13:22:34;6.75;;;3.53;;
59054;SDS011;44845;51.444;7.460;2023-09-07T13:25:00;5.10;;;3.05;;
59054;SDS011;44845;51.444;7.460;2023-09-07T13:27:26;12.43;;;3.28;;
59054;SDS011;44845;51.444;7.460;2023-09-07T13:29:51;8.80;;;3.03;;
59054;SDS011;44845;51.444;7.460;2023-09-07T13:32:16;5.63;;;3.30;;
59054;SDS011;44845;51.444;7.460;2023-09-07T13:34:45;6.05;;;3.03;;
59054;SDS011;44845;51.444;7.460;2023-09-07T13:37:10;7.05;;;3.15;;
59054;SDS011;44845;51.444;7.460;2023-09-07T13:39:35;8.38;;;3.45;;
59054;SDS011;44845;51.444;7.460;2023-09-07T13:42:01;5.75;;;3.30;;
59054;SDS011;44845;51.444;7.460;2023-09-07T13:44:26;5.15;;;3.60;;
59054;SDS011;44845;51.444;7.460;2023-09-07T13:46:51;7.90;;;3.33;;
59054;SDS011;44845;51.444;7.460;2023-09-07T13:49:18;7.88;;;3.22;;
59054;SDS011;44845;51.444;7.460;2023-09-07T13:51:44;7.10;;;3.58;;
59054;SDS011;44845;51.444;7.460;2023-09-07T13:54:09;6.60;;;3.30;;
59054;SDS011;44845;51.444;7.460;2023-09-07T13:56:35;6.65;;;3.20;;
59054;SDS011;44845;51.444;7.460;2023-09-07T13:59:01;6.40;;;2.80;;
59054;SDS011;44845;51.444;7.460;2023-09-07T14:01:27;7.15;;;3.05;;
59054;SDS011;44845;51.444;7.460;2023-09-07T14:03:52;8.70;;;2.92;;
59054;SDS011;44845;51.444;7.460;2023-09-07T14:06:18;4.70;;;3.17;;
59054;SDS011;44845;51.444;7.460;2023-09-07T14:08:45;5.90;;;3.60;;
59054;SDS011;44845;51.444;7.460;2023-09-07T14:11:11;7.13;;;3.28;;
59054;SDS011;44845;51.444;7.460;2023-09-07T14:13:36;6.30;;;3.13;;
59054;SDS011;44845;51.444;7.460;2023-09-07T14:16:02;6.20;;;3.00;;
59054;SDS011;44845;51.444;7.460;2023-09-07T14:18:27;3.67;;;2.85;;
59054;SDS011;44845;51.444;7.460;2023-09-07T14:20:53;5.28;;;3.00;;
59054;SDS011;44845;51.444;7.460;2023-09-07T14:23:22;6.25;;;2.70;;
59054;SDS011;44845;51.444;7.460;2023-09-07T14:25:48;8.45;;;3.08;;
59054;SDS011;44845;51.444;7.460;2023-09-07T14:28:13;13.20;;;2.90;;
59054;SDS011;44845;51.444;7.460;2023-09-07T14:30:39;3.38;;;2.83;;
59054;SDS011;44845;51.444;7.460;2023-09-07T14:33:04;5.65;;;3.08;;
59054;SDS011;44845;51.444;7.460;2023-09-07T14:35:30;3.97;;;2.97;;
59054;SDS011;44845;51.444;7.460;2023-09-07T14:37:55;5.30;;;3.20;;
59054;SDS011;44845;51.444;7.460;2023-09-07T14:40:20;4.63;;;2.80;;
59054;SDS011;44845;51.444;7.460;2023-09-07T14:42:48;3.47;;;2.70;;
59054;SDS011;44845;51.444;7.460;2023-09-07T14:45:15;5.63;;;2.70;;
59054;SDS011;44845;51.444;7.460;2023-09-07T14:47:41;4.35;;;2.55;;
59054;SDS011;44845;51.444;7.460;2023-09-07T14:50:06;3.22;;;2.80;;
59054;SDS011;44845;51.444;7.460;2023-09-07T14:52:32;3.55;;;2.63;;
59054;SDS011;44845;51.444;7.460;2023-09-07T14:55:02;5.70;;;2.85;;
59054;SDS011;44845;51.444;7.460;2023-09-07T14:57:28;3.45;;;2.15;;
59054;SDS011;44845;51.444;7.460;2023-09-07T14:59:53;7.03;;;2.80;;
59054;SDS011;44845;51.444;7.460;2023-09-07T15:02:18;6.45;;;2.60;;
59054;SDS011;44845;51.444;7.460;2023-09-07T15:04:44;4.03;;;2.30;;
59054;SDS011;44845;51.444;7.460;2023-09-07T15:07:09;4.32;;;2.25;;
59054;SDS011;44845;51.444;7.460;2023-09-07T15:09:35;6.13;;;2.40;;
59054;SDS011;44845;51.444;7.460;2023-09-07T15:12:00;3.60;;;2.35;;
59054;SDS011;44845;51.444;7.460;2023-09-07T15:14:26;3.90;;;2.10;;
59054;SDS011;44845;51.444;7.460;2023-09-07T15:16:51;4.20;;;2.60;;
59054;SDS011;44845;51.444;7.460;2023-09-07T15:19:17;3.78;;;2.65;;
59054;SDS011;44845;51.444;7.460;2023-09-07T15:21:42;3.53;;;2.22;;
59054;SDS011;44845;51.444;7.460;2023-09-07T15:24:07;5.53;;;2.42;;
59054;SDS011;44845;51.444;7.460;2023-09-07T15:26:40;2.63;;;2.15;;
59054;SDS011;44845;51.444;7.460;2023-09-07T15:29:07;3.08;;;2.33;;